createdAt,value
2023-06-01T00:00:29.260Z,2.83
2023-06-01T00:02:46.238Z,2.70
2023-06-01T00:05:03.467Z,2.42
2023-06-01T00:07:20.485Z,2.85
2023-06-01T00:09:37.482Z,2.88
2023-06-01T00:11:54.881Z,3.05
2023-06-01T00:14:13.932Z,2.70
2023-06-01T00:16:30.940Z,2.88
2023-06-01T00:18:47.895Z,2.63
2023-06-01T00:21:04.793Z,2.50
2023-06-01T00:23:22.132Z,3.25
2023-06-01T00:25:39.072Z,2.90
2023-06-01T00:27:56.060Z,2.83
2023-06-01T00:30:12.973Z,2.67
2023-06-01T00:32:30.362Z,2.67
2023-06-01T00:34:47.528Z,2.70
2023-06-01T00:37:06.695Z,2.90
2023-06-01T00:39:24.684Z,2.80
2023-06-01T00:41:41.636Z,2.80
2023-06-01T00:43:58.601Z,2.80
2023-06-01T00:46:15.556Z,2.85
2023-06-01T00:48:32.465Z,3.20
2023-06-01T00:50:49.412Z,2.90
2023-06-01T00:53:06.442Z,3.10
2023-06-01T00:55:25.675Z,2.72
2023-06-01T00:57:42.606Z,3.00
2023-06-01T00:59:59.548Z,2.72
2023-06-01T01:02:16.699Z,2.90
2023-06-01T01:04:34.132Z,3.13
2023-06-01T01:06:51.056Z,2.42
2023-06-01T01:09:07.956Z,2.95
2023-06-01T01:11:24.882Z,3.10
2023-06-01T01:13:41.879Z,2.65
2023-06-01T01:15:59.069Z,3.10
2023-06-01T01:18:16.544Z,3.40
2023-06-01T01:20:33.562Z,2.90
2023-06-01T01:22:51.744Z,3.05
2023-06-01T01:25:08.740Z,2.85
2023-06-01T01:27:25.906Z,2.97
2023-06-01T01:29:45.148Z,3.10
2023-06-01T01:32:02.247Z,2.83
2023-06-01T01:34:20.250Z,2.67
2023-06-01T01:36:37.403Z,3.10
2023-06-01T01:38:54.389Z,3.17
2023-06-01T01:41:11.376Z,3.22
2023-06-01T01:43:29.793Z,3.20
2023-06-01T01:45:46.759Z,2.88
2023-06-01T01:48:04.808Z,3.17
2023-06-01T01:50:21.867Z,3.25
2023-06-01T01:52:38.904Z,3.28
2023-06-01T01:54:57.079Z,3.20
2023-06-01T01:57:13.974Z,2.95
2023-06-01T01:59:30.973Z,2.85
2023-06-01T02:01:48.020Z,3.20
2023-06-01T02:04:06.037Z,3.10
2023-06-01T02:06:23.042Z,2.90
2023-06-01T02:08:40.013Z,3.15
2023-06-01T02:10:56.955Z,2.97
2023-06-01T02:13:14.421Z,3.05
2023-06-01T02:15:31.351Z,2.97
2023-06-01T02:17:48.929Z,3.00
2023-06-01T02:20:05.909Z,3.47
2023-06-01T02:22:22.837Z,3.28
2023-06-01T02:24:39.747Z,3.00
2023-06-01T02:26:58.771Z,3.00
2023-06-01T02:29:16.255Z,3.03
2023-06-01T02:31:33.246Z,3.20
2023-06-01T02:33:50.226Z,3.10
2023-06-01T02:36:07.389Z,2.88
2023-06-01T02:38:24.337Z,3.00
2023-06-01T02:40:43.283Z,3.17
2023-06-01T02:43:00.233Z,3.10
2023-06-01T02:45:19.265Z,3.00
2023-06-01T02:47:37.265Z,2.83
2023-06-01T02:49:54.329Z,2.85
2023-06-01T02:52:11.447Z,3.10
2023-06-01T02:54:28.828Z,3.10
2023-06-01T02:56:45.795Z,3.03
2023-06-01T02:59:02.721Z,3.13
2023-06-01T03:01:19.662Z,3.17
2023-06-01T03:03:36.700Z,3.17
2023-06-01T03:05:53.666Z,3.17
2023-06-01T03:08:10.582Z,3.22
2023-06-01T03:10:27.560Z,3.13
2023-06-01T03:12:44.521Z,3.17
2023-06-01T03:15:01.450Z,3.28
2023-06-01T03:17:18.396Z,3.45
2023-06-01T03:19:37.481Z,3.20
2023-06-01T03:21:55.584Z,3.40
2023-06-01T03:24:12.588Z,3.17
2023-06-01T03:26:30.066Z,3.40
2023-06-01T03:28:46.990Z,3.30
2023-06-01T03:31:04.074Z,2.90
2023-06-01T03:33:21.250Z,3.10
2023-06-01T03:35:38.733Z,3.15
2023-06-01T03:37:55.882Z,3.20
2023-06-01T03:40:12.819Z,3.50
2023-06-01T03:42:30.230Z,3.28
2023-06-01T03:44:47.211Z,3.15
2023-06-01T03:47:04.341Z,3.38
2023-06-01T03:49:23.446Z,3.00
2023-06-01T03:51:40.341Z,3.10
2023-06-01T03:53:59.779Z,3.45
2023-06-01T03:56:19.471Z,3.60
2023-06-01T03:58:36.958Z,3.35
2023-06-01T04:00:53.928Z,3.15
2023-06-01T04:03:10.937Z,2.90
2023-06-01T04:05:27.935Z,3.38
2023-06-01T04:07:45.152Z,3.28
2023-06-01T04:10:04.249Z,3.55
2023-06-01T04:12:21.754Z,3.17
2023-06-01T04:14:38.703Z,3.47
2023-06-01T04:16:56.275Z,3.05
2023-06-01T04:19:24.982Z,3.22
2023-06-01T04:21:41.997Z,3.38
2023-06-01T04:23:59.620Z,3.13
2023-06-01T04:26:16.573Z,3.22
2023-06-01T04:28:33.465Z,3.55
2023-06-01T04:30:50.390Z,3.10
2023-06-01T04:33:07.581Z,3.17
2023-06-01T04:35:24.646Z,3.17
2023-06-01T04:37:42.034Z,3.38
2023-06-01T04:39:58.982Z,3.50
2023-06-01T04:42:15.876Z,3.00
2023-06-01T04:44:32.912Z,3.70
2023-06-01T04:46:50.093Z,3.42
2023-06-01T04:49:09.101Z,3.30
2023-06-01T04:51:27.286Z,3.28
2023-06-01T04:53:45.098Z,3.50
2023-06-01T04:56:04.053Z,3.20
2023-06-01T04:58:20.966Z,3.17
2023-06-01T05:00:37.867Z,3.15
2023-06-01T05:02:54.850Z,3.00
2023-06-01T05:05:11.797Z,3.20
2023-06-01T05:07:28.695Z,3.15
2023-06-01T05:09:45.645Z,3.60
2023-06-01T05:12:02.629Z,3.25
2023-06-01T05:14:19.956Z,3.35
2023-06-01T05:16:36.894Z,3.10
2023-06-01T05:18:53.883Z,3.08
2023-06-01T05:21:10.770Z,3.10
2023-06-01T05:23:27.684Z,2.88
2023-06-01T05:25:45.105Z,3.20
2023-06-01T05:28:02.453Z,3.30
2023-06-01T05:30:19.374Z,3.20
2023-06-01T05:32:36.817Z,2.92
2023-06-01T05:34:53.726Z,3.30
2023-06-01T05:37:10.611Z,3.35
2023-06-01T05:39:27.538Z,3.25
2023-06-01T05:41:44.450Z,3.55
2023-06-01T05:44:01.880Z,3.13
2023-06-01T05:46:18.911Z,3.03
2023-06-01T05:48:37.219Z,3.17
2023-06-01T05:50:55.336Z,3.20
2023-06-01T05:53:12.251Z,2.92
2023-06-01T05:55:29.593Z,3.53
2023-06-01T05:57:46.526Z,3.30
2023-06-01T06:00:03.923Z,3.30
2023-06-01T06:02:20.860Z,3.30
2023-06-01T06:04:38.315Z,3.30
2023-06-01T06:06:55.215Z,3.33
2023-06-01T06:09:12.139Z,4.70
2023-06-01T06:11:29.010Z,4.03
2023-06-01T06:13:45.987Z,3.20
2023-06-01T06:16:03.092Z,3.20
2023-06-01T06:18:20.057Z,3.13
2023-06-01T06:20:36.945Z,3.50
2023-06-01T06:22:53.885Z,3.03
2023-06-01T06:25:10.813Z,3.03
2023-06-01T06:27:27.752Z,3.10
2023-06-01T06:29:44.668Z,3.05
2023-06-01T06:32:02.164Z,3.20
2023-06-01T06:34:19.160Z,3.38
2023-06-01T06:36:36.060Z,3.20
2023-06-01T06:38:53.372Z,2.97
2023-06-01T06:41:10.287Z,2.90
2023-06-01T06:43:27.685Z,3.00
2023-06-01T06:45:44.591Z,3.28
2023-06-01T06:48:01.520Z,3.53
2023-06-01T06:50:18.522Z,2.88
2023-06-01T06:52:35.501Z,2.72
2023-06-01T06:54:52.409Z,2.85
2023-06-01T06:57:09.318Z,3.00
2023-06-01T06:59:26.265Z,2.70
2023-06-01T07:01:43.241Z,2.95
2023-06-01T07:04:00.761Z,2.95
2023-06-01T07:06:17.777Z,3.28
2023-06-01T07:08:36.738Z,2.70
2023-06-01T07:10:53.726Z,3.40
2023-06-01T07:13:13.503Z,2.72
2023-06-01T07:15:32.114Z,3.00
2023-06-01T07:17:49.021Z,2.63
2023-06-01T07:20:06.572Z,3.08
2023-06-01T07:22:23.463Z,2.83
2023-06-01T07:24:40.809Z,2.63
2023-06-01T07:26:58.128Z,2.75
2023-06-01T07:29:15.072Z,2.60
2023-06-01T07:31:32.026Z,2.63
2023-06-01T07:33:48.973Z,2.60
2023-06-01T07:36:06.399Z,2.90
2023-06-01T07:38:23.373Z,2.60
2023-06-01T07:40:40.292Z,2.80
2023-06-01T07:42:57.161Z,3.10
2023-06-01T07:45:14.052Z,2.80
2023-06-01T07:47:31.105Z,3.03
2023-06-01T07:49:48.706Z,2.75
2023-06-01T07:52:05.673Z,2.80
2023-06-01T07:54:22.716Z,2.35
2023-06-01T07:56:39.696Z,2.85
2023-06-01T07:58:56.569Z,2.78
2023-06-01T08:01:13.446Z,2.50
2023-06-01T08:03:31.583Z,2.75
2023-06-01T08:05:49.221Z,2.72
2023-06-01T08:08:06.515Z,2.58
2023-06-01T08:10:23.417Z,2.50
2023-06-01T08:12:40.340Z,2.90
2023-06-01T08:14:57.748Z,2.83
2023-06-01T08:17:14.732Z,2.67
2023-06-01T08:19:31.689Z,2.60
2023-06-01T08:21:48.648Z,2.30
2023-06-01T08:24:05.659Z,2.10
2023-06-01T08:26:22.557Z,2.50
2023-06-01T08:28:39.463Z,2.45
2023-06-01T08:30:56.818Z,2.35
2023-06-01T08:33:13.828Z,2.35
2023-06-01T08:35:30.736Z,2.17
2023-06-01T08:37:47.622Z,2.72
2023-06-01T08:40:04.527Z,2.47
2023-06-01T08:42:23.489Z,2.40
2023-06-01T08:44:40.399Z,2.63
2023-06-01T08:46:57.347Z,2.20
2023-06-01T08:49:14.333Z,2.30
2023-06-01T08:51:31.785Z,2.35
2023-06-01T08:53:48.727Z,2.20
2023-06-01T08:56:05.614Z,2.28
2023-06-01T08:58:22.481Z,2.53
2023-06-01T09:00:39.387Z,2.50
2023-06-01T09:02:56.384Z,2.00
2023-06-01T09:05:13.334Z,2.30
2023-06-01T09:07:30.271Z,2.30
2023-06-01T09:09:47.275Z,2.33
2023-06-01T09:12:04.201Z,2.42
2023-06-01T09:14:21.063Z,2.30
2023-06-01T09:16:38.506Z,2.33
2023-06-01T09:18:55.471Z,2.30
2023-06-01T09:21:12.480Z,2.42
2023-06-01T09:23:29.344Z,2.25
2023-06-01T09:25:46.219Z,2.30
2023-06-01T09:28:03.156Z,2.50
2023-06-01T09:30:20.281Z,2.42
2023-06-01T09:32:37.298Z,2.30
2023-06-01T09:34:54.160Z,2.33
2023-06-01T09:37:11.054Z,2.13
2023-06-01T09:39:27.957Z,2.40
2023-06-01T09:41:44.865Z,2.58
2023-06-01T09:44:01.747Z,2.22
2023-06-01T09:46:18.687Z,2.38
2023-06-01T09:48:36.093Z,2.42
2023-06-01T09:50:53.448Z,2.40
2023-06-01T09:53:10.367Z,2.30
2023-06-01T09:55:27.307Z,2.30
2023-06-01T09:57:44.261Z,2.00
2023-06-01T10:00:01.202Z,2.53
2023-06-01T10:02:18.147Z,2.15
2023-06-01T10:04:35.064Z,2.63
2023-06-01T10:06:51.957Z,2.50
2023-06-01T10:09:08.897Z,2.30
2023-06-01T10:11:25.830Z,2.08
2023-06-01T10:13:42.811Z,2.53
2023-06-01T10:15:59.795Z,2.50
2023-06-01T10:18:17.272Z,1.90
2023-06-01T10:20:34.216Z,2.53
2023-06-01T10:22:51.169Z,2.65
2023-06-01T10:25:08.169Z,2.40
2023-06-01T10:27:25.057Z,2.33
2023-06-01T10:29:42.020Z,2.47
2023-06-01T10:31:59.032Z,2.08
2023-06-01T10:34:16.041Z,2.60
2023-06-01T10:36:32.959Z,2.35
2023-06-01T10:38:52.243Z,2.45
2023-06-01T10:41:09.136Z,2.33
2023-06-01T10:43:26.077Z,2.75
2023-06-01T10:45:43.538Z,2.17
2023-06-01T10:48:01.047Z,2.38
2023-06-01T10:50:18.480Z,2.10
2023-06-01T10:52:35.433Z,2.35
2023-06-01T10:54:52.837Z,2.70
2023-06-01T10:57:09.712Z,2.40
2023-06-01T10:59:26.625Z,2.08
2023-06-01T11:01:43.620Z,2.35
2023-06-01T11:04:00.613Z,2.50
2023-06-01T11:06:18.097Z,2.70
2023-06-01T11:08:35.038Z,2.28
2023-06-01T11:10:52.385Z,2.60
2023-06-01T11:13:09.315Z,2.45
2023-06-01T11:15:26.217Z,2.47
2023-06-01T11:17:43.187Z,2.55
2023-06-01T11:20:00.151Z,2.60
2023-06-01T11:22:17.453Z,2.55
2023-06-01T11:24:34.366Z,2.35
2023-06-01T11:26:51.262Z,2.40
2023-06-01T11:29:08.183Z,2.90
2023-06-01T11:31:25.257Z,2.20
2023-06-01T11:33:42.297Z,2.40
2023-06-01T11:35:59.426Z,2.30
2023-06-01T11:38:16.420Z,2.63
2023-06-01T11:40:37.593Z,2.35
2023-06-01T11:42:57.085Z,2.33
2023-06-01T11:45:14.042Z,2.25
2023-06-01T11:47:31.601Z,2.50
2023-06-01T11:49:48.523Z,2.50
2023-06-01T11:52:05.422Z,2.33
2023-06-01T11:54:22.354Z,2.40
2023-06-01T11:56:39.261Z,2.70
2023-06-01T11:58:56.171Z,2.53
2023-06-01T12:01:13.180Z,2.55
2023-06-01T12:03:32.013Z,2.60
2023-06-01T12:05:49.225Z,2.50
2023-06-01T12:08:06.623Z,2.30
2023-06-01T12:10:23.629Z,2.53
2023-06-01T12:12:40.532Z,2.85
2023-06-01T12:14:57.449Z,2.80
2023-06-01T12:17:14.873Z,3.15
2023-06-01T12:19:31.819Z,2.90
2023-06-01T12:21:48.809Z,2.70
2023-06-01T12:24:05.798Z,2.90
2023-06-01T12:26:22.733Z,3.15
2023-06-01T12:28:39.674Z,3.17
2023-06-01T12:30:56.656Z,3.00
2023-06-01T12:33:14.085Z,3.25
2023-06-01T12:35:31.025Z,2.80
2023-06-01T12:37:47.896Z,3.10
2023-06-01T12:40:05.059Z,2.90
2023-06-01T12:42:22.621Z,2.67
2023-06-01T12:44:40.740Z,2.78
2023-06-01T12:46:57.825Z,3.00
2023-06-01T12:49:14.930Z,3.05
2023-06-01T12:51:31.856Z,2.97
2023-06-01T12:53:48.762Z,2.65
2023-06-01T12:56:05.708Z,3.10
2023-06-01T12:58:22.624Z,2.97
2023-06-01T13:00:56.698Z,3.00
2023-06-01T13:03:14.027Z,2.90
2023-06-01T13:05:30.988Z,3.13
2023-06-01T13:07:47.910Z,2.90
2023-06-01T13:10:05.343Z,3.10
2023-06-01T13:12:22.285Z,3.00
2023-06-01T13:14:39.210Z,2.92
2023-06-01T13:16:56.252Z,2.70
2023-06-01T13:19:13.140Z,2.80
2023-06-01T13:21:30.073Z,2.70
2023-06-01T13:23:47.025Z,3.13
2023-06-01T13:26:04.116Z,3.10
2023-06-01T13:28:21.223Z,2.75
2023-06-01T13:30:38.631Z,3.10
2023-06-01T13:32:55.543Z,2.70
2023-06-01T13:35:12.506Z,2.80
2023-06-01T13:37:29.412Z,2.80
2023-06-01T13:39:46.776Z,2.67
2023-06-01T13:42:03.651Z,3.65
2023-06-01T13:44:20.557Z,3.13
2023-06-01T13:46:37.565Z,3.10
2023-06-01T13:48:54.527Z,3.20
2023-06-01T13:51:11.405Z,2.90
2023-06-01T13:53:28.360Z,2.80
2023-06-01T13:55:45.278Z,3.05
2023-06-01T13:58:02.632Z,3.35
2023-06-01T14:00:20.937Z,3.22
2023-06-01T14:02:39.930Z,3.35
2023-06-01T14:05:06.081Z,3.85
2023-06-01T14:07:24.830Z,4.15
2023-06-01T14:09:41.753Z,4.43
2023-06-01T14:11:58.696Z,3.97
2023-06-01T14:14:15.625Z,3.95
2023-06-01T14:16:32.571Z,3.60
2023-06-01T14:18:49.533Z,3.95
2023-06-01T14:21:06.539Z,4.45
2023-06-01T14:23:23.542Z,4.53
2023-06-01T14:25:40.994Z,4.68
2023-06-01T14:27:57.915Z,4.90
2023-06-01T14:30:14.897Z,4.35
2023-06-01T14:32:31.821Z,4.60
2023-06-01T14:34:48.724Z,4.32
2023-06-01T14:37:05.603Z,4.70
2023-06-01T14:39:22.576Z,5.13
2023-06-01T14:41:39.493Z,5.32
2023-06-01T14:43:56.387Z,5.50
2023-06-01T14:46:13.288Z,5.10
2023-06-01T14:48:30.257Z,5.30
2023-06-01T14:50:47.157Z,5.20
2023-06-01T14:53:06.129Z,4.88
2023-06-01T14:55:22.998Z,5.45
2023-06-01T14:57:39.930Z,5.13
2023-06-01T15:00:04.323Z,6.55
2023-06-01T15:02:24.190Z,8.43
2023-06-01T15:04:43.337Z,8.30
2023-06-01T15:07:00.763Z,8.93
2023-06-01T15:09:17.643Z,10.80
2023-06-01T15:11:34.579Z,11.38
2023-06-01T15:13:51.526Z,11.45
2023-06-01T15:16:08.509Z,11.90
2023-06-01T15:18:25.475Z,12.10
2023-06-01T15:20:42.797Z,12.10
2023-06-01T15:22:59.704Z,11.90
2023-06-01T15:25:16.658Z,11.65
2023-06-01T15:27:33.550Z,11.70
2023-06-01T15:29:50.449Z,11.40
2023-06-01T15:32:07.349Z,11.90
2023-06-01T15:34:24.309Z,11.73
2023-06-01T15:36:41.254Z,12.20
2023-06-01T15:38:58.151Z,12.02
2023-06-01T15:41:16.085Z,11.85
2023-06-01T15:43:33.193Z,11.32
2023-06-01T15:45:50.598Z,10.98
2023-06-01T15:48:07.544Z,11.65
2023-06-01T15:50:24.991Z,11.73
2023-06-01T15:52:41.896Z,12.20
2023-06-01T15:54:58.835Z,11.38
2023-06-01T15:57:15.783Z,10.57
2023-06-01T15:59:32.682Z,10.60
2023-06-01T16:01:50.146Z,9.18
2023-06-01T16:04:07.103Z,9.20
2023-06-01T16:06:24.089Z,9.23
2023-06-01T16:08:41.027Z,9.23
2023-06-01T16:10:57.996Z,9.23
2023-06-01T16:13:14.913Z,8.90
2023-06-01T16:15:31.805Z,8.50
2023-06-01T16:17:48.730Z,8.90
2023-06-01T16:20:05.687Z,8.55
2023-06-01T16:22:22.658Z,9.20
2023-06-01T16:24:39.537Z,8.90
2023-06-01T16:26:56.454Z,8.70
2023-06-01T16:29:13.379Z,8.40
2023-06-01T16:31:30.299Z,9.07
2023-06-01T16:33:47.238Z,9.05
2023-06-01T16:36:04.146Z,9.60
2023-06-01T16:38:21.080Z,9.45
2023-06-01T16:40:38.029Z,10.15
2023-06-01T16:42:54.979Z,10.35
2023-06-01T16:45:11.887Z,11.05
2023-06-01T16:47:28.900Z,10.70
2023-06-01T16:49:45.881Z,11.80
2023-06-01T16:52:02.808Z,11.65
2023-06-01T16:54:20.202Z,11.88
2023-06-01T16:56:37.594Z,12.35
2023-06-01T16:58:54.501Z,13.20
2023-06-01T17:01:11.484Z,12.65
2023-06-01T17:03:29.406Z,12.98
2023-06-01T17:05:47.530Z,13.30
2023-06-01T17:08:04.434Z,14.07
2023-06-01T17:10:21.359Z,13.20
2023-06-01T17:12:38.783Z,12.73
2023-06-01T17:14:55.688Z,13.05
2023-06-01T17:17:12.770Z,12.15
2023-06-01T17:19:29.787Z,12.13
2023-06-01T17:21:46.808Z,13.00
2023-06-01T17:24:04.274Z,12.00
2023-06-01T17:26:21.166Z,11.82
2023-06-01T17:28:38.097Z,11.48
2023-06-01T17:30:55.003Z,11.82
2023-06-01T17:33:12.024Z,11.52
2023-06-01T17:35:29.012Z,12.27
2023-06-01T17:37:45.957Z,11.52
2023-06-01T17:40:03.370Z,10.85
2023-06-01T17:42:20.308Z,10.68
2023-06-01T17:44:37.209Z,10.25
2023-06-01T17:46:54.153Z,10.02
2023-06-01T17:49:11.123Z,9.95
2023-06-01T17:51:28.118Z,9.30
2023-06-01T17:53:45.064Z,10.07
2023-06-01T17:56:02.339Z,10.52
2023-06-01T17:58:19.536Z,9.85
2023-06-01T18:00:37.006Z,9.38
2023-06-01T18:02:55.961Z,13.23
2023-06-01T18:05:12.962Z,11.70
2023-06-01T18:07:29.893Z,19.05
2023-06-01T18:09:46.813Z,9.77
2023-06-01T18:12:03.707Z,10.95
2023-06-01T18:14:20.649Z,10.45
2023-06-01T18:16:37.582Z,9.80
2023-06-01T18:18:54.645Z,9.00
2023-06-01T18:21:11.570Z,9.02
2023-06-01T18:23:28.498Z,8.93
2023-06-01T18:25:45.399Z,8.45
2023-06-01T18:28:02.335Z,8.70
2023-06-01T18:30:19.730Z,9.02
2023-06-01T18:32:36.648Z,8.60
2023-06-01T18:34:53.601Z,8.38
2023-06-01T18:37:10.490Z,8.60
2023-06-01T18:39:27.371Z,8.98
2023-06-01T18:41:44.296Z,8.52
2023-06-01T18:44:01.188Z,8.35
2023-06-01T18:46:18.137Z,8.27
2023-06-01T18:48:35.557Z,8.60
2023-06-01T18:50:52.443Z,8.80
2023-06-01T18:53:11.342Z,8.18
2023-06-01T18:55:28.373Z,8.15
2023-06-01T18:57:45.326Z,7.82
2023-06-01T19:00:02.211Z,8.07
2023-06-01T19:02:19.152Z,8.40
2023-06-01T19:04:36.092Z,9.35
2023-06-01T19:06:52.987Z,9.00
2023-06-01T19:09:09.882Z,8.95
2023-06-01T19:11:26.782Z,8.45
2023-06-01T19:13:43.733Z,8.30
2023-06-01T19:16:00.621Z,8.55
2023-06-01T19:18:17.892Z,7.90
2023-06-01T19:20:34.761Z,7.93
2023-06-01T19:22:52.146Z,7.25
2023-06-01T19:25:09.031Z,7.60
2023-06-01T19:27:25.931Z,7.03
2023-06-01T19:29:42.838Z,7.85
2023-06-01T19:32:00.346Z,7.88
2023-06-01T19:34:17.277Z,7.45
2023-06-01T19:36:34.189Z,7.07
2023-06-01T19:38:51.073Z,7.63
2023-06-01T19:41:08.024Z,7.15
2023-06-01T19:43:24.907Z,7.47
2023-06-01T19:45:41.821Z,7.30
2023-06-01T19:47:58.751Z,6.90
2023-06-01T19:50:15.706Z,7.05
2023-06-01T19:52:37.102Z,6.97
2023-06-01T19:54:54.854Z,6.75
2023-06-01T19:57:12.282Z,6.80
2023-06-01T19:59:29.251Z,7.13
2023-06-01T20:01:46.206Z,7.70
2023-06-01T20:04:03.150Z,7.45
2023-06-01T20:06:20.051Z,7.47
2023-06-01T20:08:36.940Z,7.30
2023-06-01T20:10:53.879Z,7.10
2023-06-01T20:13:10.808Z,7.32
2023-06-01T20:15:27.746Z,7.13
2023-06-01T20:17:44.719Z,6.60
2023-06-01T20:20:01.611Z,6.95
2023-06-01T20:22:18.498Z,6.90
2023-06-01T20:24:35.403Z,7.00
2023-06-01T20:26:52.899Z,7.32
2023-06-01T20:29:09.894Z,7.60
2023-06-01T20:31:26.847Z,7.05
2023-06-01T20:33:43.786Z,7.07
2023-06-01T20:36:00.815Z,7.22
2023-06-01T20:38:17.795Z,7.05
2023-06-01T20:40:34.694Z,6.75
2023-06-01T20:42:51.582Z,7.00
2023-06-01T20:45:08.500Z,6.78
2023-06-01T20:47:25.720Z,6.47
2023-06-01T20:49:42.625Z,6.43
2023-06-01T20:51:59.551Z,6.75
2023-06-01T20:54:16.492Z,6.93
2023-06-01T20:56:33.418Z,6.70
2023-06-01T20:58:50.280Z,6.72
2023-06-01T21:01:07.307Z,6.82
2023-06-01T21:03:24.354Z,7.05
2023-06-01T21:05:41.338Z,6.93
2023-06-01T21:07:58.268Z,7.07
2023-06-01T21:10:15.202Z,6.65
2023-06-01T21:12:32.174Z,6.90
2023-06-01T21:14:49.082Z,6.72
2023-06-01T21:17:06.016Z,7.05
2023-06-01T21:19:22.978Z,7.20
2023-06-01T21:21:39.992Z,7.18
2023-06-01T21:23:56.896Z,7.22
2023-06-01T21:26:14.036Z,7.60
2023-06-01T21:28:31.122Z,7.32
2023-06-01T21:30:48.106Z,7.85
2023-06-01T21:33:05.593Z,7.20
2023-06-01T21:35:24.592Z,6.93
2023-06-01T21:37:41.544Z,7.10
2023-06-01T21:39:58.487Z,7.20
2023-06-01T21:42:15.399Z,7.25
2023-06-01T21:44:32.331Z,7.13
2023-06-01T21:46:49.251Z,7.35
2023-06-01T21:49:06.262Z,7.53
2023-06-01T21:51:23.268Z,7.30
2023-06-01T21:53:40.206Z,7.30
2023-06-01T21:55:57.669Z,7.85
2023-06-01T21:58:15.281Z,7.00
2023-06-01T22:00:32.288Z,7.30
2023-06-01T22:02:49.401Z,7.35
2023-06-01T22:05:06.446Z,7.45
2023-06-01T22:07:23.835Z,7.60
2023-06-01T22:09:40.762Z,7.65
2023-06-01T22:11:58.089Z,7.90
2023-06-01T22:14:15.240Z,7.70
2023-06-01T22:16:34.274Z,7.93
2023-06-01T22:18:51.298Z,8.07
2023-06-01T22:21:08.227Z,7.65
2023-06-01T22:23:25.252Z,8.43
2023-06-01T22:25:42.274Z,8.13
2023-06-01T22:27:59.767Z,6.85
2023-06-01T22:30:16.778Z,8.25
2023-06-01T22:32:36.074Z,7.90
2023-06-01T22:34:53.135Z,8.20
2023-06-01T22:37:10.099Z,8.32
2023-06-01T22:39:27.002Z,8.18
2023-06-01T22:41:43.964Z,7.75
2023-06-01T22:44:00.975Z,7.22
2023-06-01T22:46:18.238Z,7.90
2023-06-01T22:48:35.229Z,8.10
2023-06-01T22:50:52.833Z,7.38
2023-06-01T22:53:09.921Z,7.60
2023-06-01T22:55:26.849Z,8.18
2023-06-01T22:57:44.054Z,8.38
2023-06-01T23:00:01.046Z,7.95
2023-06-01T23:02:18.252Z,7.78
2023-06-01T23:04:37.508Z,7.88
2023-06-01T23:06:54.470Z,7.88
2023-06-01T23:09:11.442Z,8.10
2023-06-01T23:11:28.451Z,7.95
2023-06-01T23:13:45.923Z,7.57
2023-06-01T23:16:03.122Z,7.80
2023-06-01T23:18:20.330Z,8.65
2023-06-01T23:20:37.397Z,8.40
2023-06-01T23:22:54.309Z,7.68
2023-06-01T23:25:13.511Z,7.45
2023-06-01T23:27:30.469Z,7.38
2023-06-01T23:29:47.466Z,7.28
2023-06-01T23:32:05.474Z,7.72
2023-06-01T23:34:22.424Z,7.53
2023-06-01T23:36:41.591Z,8.10
2023-06-01T23:38:58.781Z,7.40
2023-06-01T23:41:15.763Z,7.90
2023-06-01T23:43:32.746Z,7.70
2023-06-01T23:45:49.748Z,7.82
2023-06-01T23:48:08.237Z,7.95
2023-06-01T23:50:25.219Z,7.90
2023-06-01T23:52:42.195Z,8.27
2023-06-01T23:55:00.412Z,7.82
2023-06-01T23:57:17.592Z,7.97
2023-06-01T23:59:34.570Z,8.27
